Time;durP1;ratioP1;P1;durP2;ratioP2;P2;SDS_P1;SDS_P2;PMS_P1;PMS_P2;Temp;Humidity;BMP_temperature;BMP_pressure;BME280_temperature;BME280_humidity;BME280_pressure;Samples;Min_cycle;Max_cycle;Signal;HPM_P1;HPM_P2
2024/02/23 00:01:26;;;;;;;0.80;0.60;;;10.90;99.90;;;;;;4188299;28;20337;-76
2024/02/23 00:03:27;;;;;;;1.20;0.80;;;11.00;99.90;;;;;;4187022;28;20231;-76
2024/02/23 00:05:29;;;;;;;0.70;0.67;;;11.00;99.90;;;;;;4190597;28;20664;-76
2024/02/23 00:07:31;;;;;;;1.57;0.57;;;11.00;99.90;;;;;;4189514;28;20376;-73
2024/02/23 00:09:33;;;;;;;2.10;0.60;;;11.10;99.90;;;;;;4188727;28;20236;-73
2024/02/23 00:11:39;;;;;;;0.70;0.60;;;11.20;99.90;;;;;;4188444;28;20213;-73
2024/02/23 00:13:41;;;;;;;0.90;0.50;;;11.20;99.90;;;;;;4192730;28;20226;-74
2024/02/23 00:15:44;;;;;;;0.87;0.53;;;11.30;99.90;;;;;;4190095;28;20233;-73
2024/02/23 00:17:46;;;;;;;1.00;0.60;;;11.30;99.90;;;;;;4189248;28;20681;-73
2024/02/23 00:19:49;;;;;;;3.80;0.70;;;11.30;99.90;;;;;;4189040;28;20201;-73
2024/02/23 00:21:52;;;;;;;0.73;0.63;;;11.30;99.90;;;;;;4190811;28;20206;-73
2024/02/23 00:23:54;;;;;;;0.57;0.50;;;11.40;99.90;;;;;;4189423;28;20248;-72
2024/02/23 00:25:56;;;;;;;1.93;0.50;;;11.40;99.90;;;;;;4205342;28;20200;-73
2024/02/23 00:27:58;;;;;;;0.47;0.47;;;11.40;99.90;;;;;;4183883;28;20921;-75
2024/02/23 00:30:00;;;;;;;1.27;0.57;;;11.40;99.90;;;;;;4190129;28;20213;-77
2024/02/23 00:32:04;;;;;;;2.63;0.60;;;11.40;99.90;;;;;;4185868;28;20293;-76
2024/02/23 00:34:10;;;;;;;0.50;0.47;;;11.40;99.90;;;;;;4187259;28;20732;-76
2024/02/23 00:36:12;;;;;;;1.07;0.67;;;11.40;99.90;;;;;;4189982;28;20768;-77
2024/02/23 00:38:13;;;;;;;1.17;0.50;;;11.40;99.90;;;;;;4195131;28;20814;-75
2024/02/23 00:40:15;;;;;;;2.73;0.60;;;11.40;99.90;;;;;;4196271;28;20208;-73
2024/02/23 00:42:17;;;;;;;1.03;0.60;;;11.30;99.90;;;;;;4199860;28;20238;-76
2024/02/23 00:44:19;;;;;;;0.70;0.60;;;11.30;99.90;;;;;;4200003;28;20218;-76
2024/02/23 00:46:21;;;;;;;0.57;0.43;;;11.20;99.90;;;;;;4191286;28;20210;-74
2024/02/23 00:48:24;;;;;;;0.50;0.50;;;11.30;99.90;;;;;;4192493;28;20250;-75
2024/02/23 00:50:27;;;;;;;0.63;0.50;;;11.20;99.90;;;;;;4187831;28;20233;-75
2024/02/23 00:52:28;;;;;;;1.13;0.60;;;11.20;99.90;;;;;;4191793;28;20692;-75
2024/02/23 00:54:30;;;;;;;1.23;0.50;;;11.10;99.90;;;;;;4185771;28;20271;-75
2024/02/23 00:56:32;;;;;;;1.13;0.40;;;11.10;99.90;;;;;;4190523;28;20677;-75
2024/02/23 00:58:34;;;;;;;0.50;0.40;;;11.10;99.90;;;;;;4190580;28;20238;-75
2024/02/23 01:00:36;;;;;;;1.30;0.50;;;11.10;99.90;;;;;;4188140;28;20218;-75
2024/02/23 01:02:38;;;;;;;0.77;0.57;;;11.10;99.90;;;;;;4186414;28;20212;-75
2024/02/23 01:04:41;;;;;;;0.80;0.60;;;11.10;99.90;;;;;;4186166;28;20230;-75
2024/02/23 01:06:42;;;;;;;1.03;0.50;;;11.10;99.90;;;;;;4180538;28;20202;-75
2024/02/23 01:08:45;;;;;;;0.40;0.40;;;11.10;99.90;;;;;;4185106;28;20256;-75
2024/02/23 01:10:47;;;;;;;2.93;0.60;;;11.00;99.90;;;;;;4188723;28;20217;-75
2024/02/23 01:12:48;;;;;;;0.60;0.50;;;11.10;99.90;;;;;;4184416;28;20217;-75
2024/02/23 01:14:50;;;;;;;0.80;0.47;;;11.00;99.90;;;;;;4191749;28;20271;-75
2024/02/23 01:16:53;;;;;;;0.50;0.40;;;11.00;99.90;;;;;;4184230;28;20662;-75
2024/02/23 01:18:55;;;;;;;0.80;0.40;;;11.00;99.90;;;;;;4188345;28;20626;-74
2024/02/23 01:20:59;;;;;;;2.00;0.60;;;11.00;99.90;;;;;;4183688;28;20241;-74
2024/02/23 01:23:00;;;;;;;0.67;0.50;;;11.00;99.90;;;;;;4189452;28;20198;-75
2024/02/23 01:25:02;;;;;;;0.77;0.50;;;11.00;99.90;;;;;;4184776;28;20288;-75
2024/02/23 01:27:07;;;;;;;0.67;0.50;;;11.00;99.90;;;;;;4185172;28;20240;-75
2024/02/23 01:29:09;;;;;;;0.83;0.70;;;11.00;99.90;;;;;;4186588;28;20213;-75
2024/02/23 01:31:12;;;;;;;0.63;0.50;;;11.00;99.90;;;;;;4183449;28;20199;-76
2024/02/23 01:33:13;;;;;;;0.60;0.43;;;11.00;99.90;;;;;;4189857;28;20222;-75
2024/02/23 01:35:15;;;;;;;0.60;0.60;;;10.90;99.90;;;;;;4192411;28;20658;-75
2024/02/23 01:37:18;;;;;;;1.20;0.50;;;10.90;99.90;;;;;;4189112;28;20255;-75
2024/02/23 01:39:20;;;;;;;2.17;0.50;;;10.80;99.90;;;;;;4183297;28;20670;-75
2024/02/23 01:41:22;;;;;;;0.67;0.37;;;10.80;99.90;;;;;;4182316;28;20248;-75
2024/02/23 01:43:24;;;;;;;1.13;0.80;;;10.70;99.90;;;;;;4187182;28;20283;-75
2024/02/23 01:45:26;;;;;;;1.00;0.60;;;10.70;99.90;;;;;;4185224;28;20245;-74
2024/02/23 01:47:30;;;;;;;1.23;0.50;;;10.60;99.90;;;;;;4183874;28;20213;-75
2024/02/23 01:49:33;;;;;;;1.60;0.40;;;10.60;99.90;;;;;;4186695;28;20678;-75
2024/02/23 01:51:36;;;;;;;1.63;0.40;;;10.60;99.90;;;;;;4191089;28;20213;-76
2024/02/23 01:53:39;;;;;;;0.67;0.50;;;10.50;99.90;;;;;;4186699;28;20230;-75
2024/02/23 01:55:42;;;;;;;1.67;0.70;;;10.50;99.90;;;;;;4188264;28;20221;-74
2024/02/23 01:57:46;;;;;;;1.63;0.60;;;10.50;99.90;;;;;;4188356;28;20202;-75
2024/02/23 01:59:48;;;;;;;1.00;0.53;;;10.40;99.90;;;;;;4187213;28;20205;-75
2024/02/23 02:01:49;;;;;;;1.50;0.60;;;10.40;99.90;;;;;;4186627;28;20244;-75
2024/02/23 02:03:51;;;;;;;0.57;0.40;;;10.40;99.90;;;;;;4185567;28;20316;-75
2024/02/23 02:05:58;;;;;;;0.53;0.40;;;10.30;99.90;;;;;;4184948;28;20226;-75
2024/02/23 02:08:00;;;;;;;0.90;0.50;;;10.30;99.90;;;;;;4183876;28;20325;-75
2024/02/23 02:10:06;;;;;;;1.30;0.40;;;10.30;99.90;;;;;;4185799;28;20219;-74
2024/02/23 02:12:08;;;;;;;0.30;0.30;;;10.30;99.90;;;;;;4186298;28;20230;-75
2024/02/23 02:14:10;;;;;;;2.60;0.33;;;10.20;99.90;;;;;;4188760;28;20257;-75
2024/02/23 02:16:13;;;;;;;0.50;0.30;;;10.20;99.90;;;;;;4189803;28;20651;-75
2024/02/23 02:18:15;;;;;;;1.53;0.60;;;10.20;99.90;;;;;;4187960;28;20201;-75
2024/02/23 02:20:24;;;;;;;0.97;0.23;;;10.20;99.90;;;;;;4182659;28;21182;-75
2024/02/23 02:22:26;;;;;;;1.07;0.33;;;10.10;99.90;;;;;;4190946;28;20225;-75
2024/02/23 02:24:28;;;;;;;0.40;0.30;;;10.10;99.90;;;;;;4186123;28;20222;-76
2024/02/23 02:26:31;;;;;;;1.90;0.30;;;10.10;99.90;;;;;;4187037;28;20209;-76
2024/02/23 02:28:34;;;;;;;2.40;0.30;;;10.00;99.90;;;;;;4183196;28;20225;-75
2024/02/23 02:30:36;;;;;;;1.33;0.20;;;10.00;99.90;;;;;;4182135;28;20568;-75
2024/02/23 02:32:38;;;;;;;0.87;0.20;;;9.90;99.90;;;;;;4185025;28;20213;-75
2024/02/23 02:34:39;;;;;;;1.47;0.30;;;9.90;99.90;;;;;;4185692;28;20229;-74
2024/02/23 02:36:41;;;;;;;1.97;0.30;;;9.80;99.90;;;;;;4186880;28;20290;-75
2024/02/23 02:38:43;;;;;;;0.70;0.30;;;9.80;99.90;;;;;;4189334;28;20193;-74
2024/02/23 02:40:45;;;;;;;0.40;0.20;;;9.70;99.90;;;;;;4186573;28;20210;-75
2024/02/23 02:42:48;;;;;;;2.03;0.30;;;9.70;99.90;;;;;;4187090;28;20258;-75
2024/02/23 02:44:50;;;;;;;0.57;0.20;;;9.60;99.90;;;;;;4185278;28;20297;-75
2024/02/23 02:46:52;;;;;;;0.20;0.20;;;9.50;99.90;;;;;;4187174;28;20220;-76
2024/02/23 02:48:53;;;;;;;0.70;0.20;;;9.60;99.90;;;;;;4185123;28;20302;-75
2024/02/23 02:50:55;;;;;;;2.10;0.40;;;9.60;99.90;;;;;;4184014;28;20227;-75
2024/02/23 02:52:57;;;;;;;0.10;0.10;;;9.50;99.90;;;;;;4178903;28;20239;-75
2024/02/23 02:54:59;;;;;;;0.63;0.30;;;9.40;99.90;;;;;;4187502;28;20212;-75
2024/02/23 02:57:01;;;;;;;0.57;0.30;;;9.40;99.90;;;;;;4188555;28;20205;-76
2024/02/23 02:59:04;;;;;;;0.80;0.40;;;9.40;99.90;;;;;;4185460;28;20893;-76
2024/02/23 03:01:06;;;;;;;0.30;0.20;;;9.40;99.90;;;;;;4192080;28;20201;-75
2024/02/23 03:03:08;;;;;;;0.83;0.40;;;9.30;99.90;;;;;;4190842;28;20236;-74
2024/02/23 03:05:10;;;;;;;0.70;0.30;;;9.30;99.90;;;;;;4204263;28;20199;-75
2024/02/23 03:07:12;;;;;;;0.20;0.20;;;9.30;99.90;;;;;;4204352;28;20197;-73
2024/02/23 03:09:14;;;;;;;0.80;0.23;;;9.30;99.90;;;;;;4201845;28;20235;-75
2024/02/23 03:11:16;;;;;;;0.43;0.30;;;9.30;99.90;;;;;;4202961;28;20205;-76
2024/02/23 03:13:18;;;;;;;0.50;0.40;;;9.40;99.90;;;;;;4197970;28;20287;-77
2024/02/23 03:15:20;;;;;;;0.30;0.30;;;9.30;99.90;;;;;;4184839;28;20213;-76
2024/02/23 03:17:24;;;;;;;0.93;0.33;;;9.30;99.90;;;;;;4184525;28;20237;-76
2024/02/23 03:19:25;;;;;;;1.50;0.40;;;9.40;99.90;;;;;;4186418;28;20208;-76
2024/02/23 03:21:27;;;;;;;0.73;0.33;;;9.30;99.90;;;;;;4186988;28;20680;-75
2024/02/23 03:23:29;;;;;;;1.73;0.40;;;9.30;99.90;;;;;;4185975;28;20262;-76
2024/02/23 03:25:31;;;;;;;1.27;0.47;;;9.30;99.90;;;;;;4183501;28;20259;-74
2024/02/23 03:27:33;;;;;;;1.87;0.40;;;9.20;99.90;;;;;;4185607;28;20288;-76
2024/02/23 03:29:35;;;;;;;0.67;0.20;;;9.10;99.90;;;;;;4183937;28;20207;-76
2024/02/23 03:31:38;;;;;;;0.83;0.30;;;9.00;99.90;;;;;;4180569;28;20207;-76
2024/02/23 03:33:40;;;;;;;0.83;0.40;;;9.00;99.90;;;;;;4186935;28;20260;-76
2024/02/23 03:35:42;;;;;;;2.57;0.40;;;9.00;99.90;;;;;;4183735;28;20242;-76
2024/02/23 03:37:44;;;;;;;2.57;0.60;;;8.90;99.90;;;;;;4185302;28;20213;-76
2024/02/23 03:39:45;;;;;;;2.00;0.40;;;8.80;99.90;;;;;;4182699;28;20714;-75
2024/02/23 03:41:47;;;;;;;0.30;0.30;;;8.70;99.90;;;;;;4185512;28;20656;-77
2024/02/23 03:43:49;;;;;;;1.40;0.40;;;8.60;99.90;;;;;;4182957;28;20247;-76
2024/02/23 03:45:51;;;;;;;0.30;0.20;;;8.50;99.90;;;;;;4182371;28;21660;-75
2024/02/23 03:47:55;;;;;;;0.47;0.20;;;8.40;99.90;;;;;;4184212;28;20200;-74
2024/02/23 03:49:55;;;;;;;0.83;0.53;;;8.40;99.90;;;;;;4188530;28;20207;-74
2024/02/23 03:51:57;;;;;;;1.67;0.40;;;8.30;99.90;;;;;;4183789;28;20204;-74
2024/02/23 03:53:59;;;;;;;0.50;0.50;;;8.20;99.90;;;;;;4186342;28;20250;-75
2024/02/23 03:56:01;;;;;;;0.53;0.13;;;8.20;99.90;;;;;;4184482;28;20224;-75
2024/02/23 03:58:03;;;;;;;2.03;0.30;;;8.10;99.90;;;;;;4184893;28;20236;-75
2024/02/23 04:00:07;;;;;;;0.33;0.30;;;8.00;99.90;;;;;;4181770;28;20290;-74
2024/02/23 04:02:09;;;;;;;0.50;0.33;;;8.00;99.90;;;;;;4184010;28;20217;-75
2024/02/23 04:04:12;;;;;;;2.90;0.30;;;7.90;99.90;;;;;;4190626;28;20303;-74
2024/02/23 04:06:14;;;;;;;0.77;0.40;;;7.90;99.90;;;;;;4185993;28;20221;-76
2024/02/23 04:08:16;;;;;;;1.00;0.30;;;7.90;99.90;;;;;;4186874;28;20229;-75
2024/02/23 04:10:19;;;;;;;1.60;0.30;;;7.90;99.90;;;;;;4184534;28;20810;-74
2024/02/23 04:12:21;;;;;;;1.50;0.30;;;7.80;99.90;;;;;;4183353;28;20199;-75
2024/02/23 04:14:23;;;;;;;0.67;0.30;;;7.80;99.90;;;;;;4185970;28;20321;-75
2024/02/23 04:16:25;;;;;;;1.90;0.30;;;7.70;99.90;;;;;;4189660;28;20685;-75
2024/02/23 04:18:26;;;;;;;2.73;0.40;;;7.70;99.90;;;;;;4188225;28;20212;-75
2024/02/23 04:20:29;;;;;;;1.70;0.33;;;7.70;99.90;;;;;;4181869;28;20671;-74
2024/02/23 04:22:30;;;;;;;1.50;0.30;;;7.60;99.90;;;;;;4187819;28;20297;-75
2024/02/23 04:24:35;;;;;;;2.27;0.20;;;7.60;99.90;;;;;;4183770;28;20769;-74
2024/02/23 04:26:37;;;;;;;1.03;0.40;;;7.60;99.90;;;;;;4180031;28;20286;-76
2024/02/23 04:28:40;;;;;;;1.30;0.30;;;7.50;99.90;;;;;;4187507;28;20222;-75
2024/02/23 04:30:40;;;;;;;0.93;0.50;;;7.50;99.90;;;;;;4187500;28;20320;-74
2024/02/23 04:32:44;;;;;;;0.50;0.30;;;7.50;99.90;;;;;;4188017;28;20194;-75
2024/02/23 04:34:48;;;;;;;1.40;0.30;;;7.40;99.90;;;;;;4185943;28;20213;-75
2024/02/23 04:36:52;;;;;;;1.93;0.50;;;7.40;99.90;;;;;;4184692;28;20366;-75
2024/02/23 04:38:52;;;;;;;0.90;0.60;;;7.40;99.90;;;;;;4187480;28;20285;-75
2024/02/23 04:40:54;;;;;;;1.30;0.50;;;7.30;99.90;;;;;;4185667;28;20233;-74
2024/02/23 04:42:56;;;;;;;1.47;0.27;;;7.30;99.90;;;;;;4185164;28;20646;-73
2024/02/23 04:44:57;;;;;;;1.80;0.30;;;7.30;99.90;;;;;;4187479;28;20725;-74
2024/02/23 04:46:59;;;;;;;2.40;0.40;;;7.20;99.90;;;;;;4186076;28;20200;-74
2024/02/23 04:49:04;;;;;;;4.33;0.30;;;7.20;99.90;;;;;;4185571;28;20244;-75
2024/02/23 04:51:07;;;;;;;0.60;0.23;;;7.20;99.90;;;;;;4187558;28;20267;-73
2024/02/23 04:53:11;;;;;;;1.23;0.37;;;7.20;99.90;;;;;;4190078;28;20296;-73
2024/02/23 04:55:13;;;;;;;1.20;0.50;;;7.10;99.90;;;;;;4187600;28;20257;-73
2024/02/23 04:57:15;;;;;;;1.07;0.40;;;7.10;99.90;;;;;;4186725;28;20284;-74
2024/02/23 04:59:17;;;;;;;0.63;0.37;;;7.00;99.90;;;;;;4188722;28;20577;-73
2024/02/23 05:01:19;;;;;;;1.40;0.40;;;7.00;99.90;;;;;;4187210;28;20209;-73
2024/02/23 05:03:21;;;;;;;1.37;0.40;;;6.90;99.90;;;;;;4184149;28;20468;-75
2024/02/23 05:05:23;;;;;;;0.43;0.30;;;6.90;99.90;;;;;;4185820;28;20213;-75
2024/02/23 05:07:26;;;;;;;0.60;0.60;;;6.90;99.90;;;;;;4187236;28;20455;-76
2024/02/23 05:09:30;;;;;;;2.90;0.70;;;6.80;99.90;;;;;;4187992;28;20492;-75
2024/02/23 05:11:32;;;;;;;1.27;0.70;;;6.80;99.90;;;;;;4185883;28;20288;-74
2024/02/23 05:13:34;;;;;;;1.23;0.30;;;6.80;99.90;;;;;;4185699;28;20546;-76
2024/02/23 05:15:35;;;;;;;2.83;0.30;;;6.80;99.90;;;;;;4188555;28;20205;-76
2024/02/23 05:17:37;;;;;;;0.60;0.30;;;6.80;99.90;;;;;;4185739;28;20206;-75
2024/02/23 05:19:39;;;;;;;2.07;0.47;;;6.80;99.90;;;;;;4182841;28;20443;-75
2024/02/23 05:21:41;;;;;;;3.20;0.37;;;6.80;99.90;;;;;;4185932;28;20821;-75
2024/02/23 05:23:43;;;;;;;0.17;0.17;;;6.90;99.90;;;;;;4185548;28;20299;-75
2024/02/23 05:25:49;;;;;;;1.13;0.33;;;6.90;99.90;;;;;;4185558;28;20455;-76
2024/02/23 05:27:51;;;;;;;0.57;0.27;;;6.90;99.90;;;;;;4188195;28;20210;-76
2024/02/23 05:29:53;;;;;;;1.63;0.47;;;6.90;99.90;;;;;;4185868;28;20903;-73
2024/02/23 05:31:56;;;;;;;1.80;0.20;;;6.90;99.90;;;;;;4189049;28;20788;-76
2024/02/23 05:33:57;;;;;;;0.47;0.30;;;6.90;99.90;;;;;;4197225;28;20283;-75
2024/02/23 05:35:59;;;;;;;1.27;0.30;;;6.90;99.90;;;;;;4199444;28;20452;-73
2024/02/23 05:38:01;;;;;;;1.10;0.40;;;7.00;99.90;;;;;;4198063;28;21101;-76
2024/02/23 05:40:04;;;;;;;0.53;0.30;;;7.00;99.90;;;;;;4190089;28;20494;-73
2024/02/23 05:42:07;;;;;;;0.90;0.30;;;7.00;99.90;;;;;;4186455;28;20699;-76
2024/02/23 05:44:10;;;;;;;0.60;0.30;;;7.00;99.90;;;;;;4192170;28;20487;-76
2024/02/23 05:46:11;;;;;;;1.77;0.63;;;7.00;99.90;;;;;;4184517;28;20293;-76
2024/02/23 05:48:13;;;;;;;3.03;0.40;;;7.00;99.90;;;;;;4185941;28;20483;-75
2024/02/23 05:50:15;;;;;;;0.30;0.20;;;6.90;99.90;;;;;;4184637;28;21052;-75
2024/02/23 05:52:17;;;;;;;1.33;0.40;;;6.90;99.90;;;;;;4183289;28;20290;-75
2024/02/23 05:54:18;;;;;;;2.03;0.33;;;6.90;99.90;;;;;;4184639;28;20497;-72
2024/02/23 05:56:20;;;;;;;1.30;0.30;;;6.90;99.90;;;;;;4183987;28;20625;-75
2024/02/23 05:58:24;;;;;;;0.80;0.30;;;6.90;99.90;;;;;;4187848;28;20205;-74
2024/02/23 06:00:25;;;;;;;4.97;0.50;;;6.80;99.90;;;;;;4183125;28;20500;-74
2024/02/23 06:02:27;;;;;;;0.83;0.40;;;6.90;99.90;;;;;;4186465;28;20458;-73
2024/02/23 06:04:28;;;;;;;0.67;0.40;;;6.80;99.90;;;;;;4188313;28;20571;-80
2024/02/23 06:06:31;;;;;;;0.93;0.50;;;6.80;99.90;;;;;;4191422;28;20457;-75
2024/02/23 06:08:33;;;;;;;0.83;0.30;;;6.70;99.90;;;;;;4188688;28;20229;-75
2024/02/23 06:10:35;;;;;;;3.13;0.40;;;6.70;99.90;;;;;;4189941;28;20440;-76
2024/02/23 06:12:38;;;;;;;0.60;0.40;;;6.70;99.90;;;;;;4184500;28;20472;-74
2024/02/23 06:14:41;;;;;;;3.00;0.50;;;6.70;99.90;;;;;;4192062;28;20480;-82
2024/02/23 06:16:45;;;;;;;0.80;0.50;;;6.70;99.90;;;;;;4187271;28;20457;-81
2024/02/23 06:18:46;;;;;;;1.63;0.40;;;6.60;99.90;;;;;;4187780;28;20493;-74
2024/02/23 06:20:50;;;;;;;1.50;0.40;;;6.60;99.90;;;;;;4189242;28;20484;-79
2024/02/23 06:22:52;;;;;;;2.10;0.70;;;6.60;99.90;;;;;;4189634;28;21149;-77
2024/02/23 06:24:54;;;;;;;0.50;0.20;;;6.60;99.90;;;;;;4184287;28;20485;-80
2024/02/23 06:26:57;;;;;;;0.40;0.40;;;6.60;99.90;;;;;;4174212;28;20981;-77
2024/02/23 06:28:59;;;;;;;1.10;0.30;;;6.60;99.90;;;;;;4189420;28;20484;-77
2024/02/23 06:31:03;;;;;;;0.80;0.57;;;6.60;99.90;;;;;;4182540;28;20210;-77
2024/02/23 06:33:08;;;;;;;0.97;0.50;;;6.50;99.90;;;;;;4185638;28;20465;-81
2024/02/23 06:35:11;;;;;;;0.57;0.50;;;6.50;99.90;;;;;;4185684;28;20463;-82
2024/02/23 06:37:13;;;;;;;2.07;0.50;;;6.50;99.90;;;;;;4187079;28;20563;-83
2024/02/23 06:39:18;;;;;;;2.00;1.03;;;6.50;99.90;;;;;;4183289;28;20752;-82
2024/02/23 06:41:21;;;;;;;1.20;0.60;;;6.50;99.90;;;;;;4178068;28;20546;-77
2024/02/23 06:43:23;;;;;;;0.67;0.40;;;6.50;99.90;;;;;;4180907;28;20463;-76
2024/02/23 06:45:25;;;;;;;2.20;0.40;;;6.50;99.90;;;;;;4184945;28;20963;-76
2024/02/23 06:47:29;;;;;;;1.93;0.50;;;6.50;99.90;;;;;;4188645;28;20440;-76
2024/02/23 06:49:31;;;;;;;1.90;0.40;;;6.40;99.90;;;;;;4185049;28;20487;-77
2024/02/23 06:51:33;;;;;;;0.73;0.50;;;6.40;99.90;;;;;;4183324;28;20460;-77
2024/02/23 06:53:35;;;;;;;1.77;0.50;;;6.40;99.90;;;;;;4182970;28;20527;-76
2024/02/23 06:55:37;;;;;;;0.47;0.40;;;6.40;99.90;;;;;;4183240;28;20490;-77
2024/02/23 06:57:39;;;;;;;1.73;0.40;;;6.40;99.90;;;;;;4186317;28;20647;-76
2024/02/23 06:59:41;;;;;;;0.50;0.40;;;6.50;99.90;;;;;;4184411;28;21057;-76
2024/02/23 07:01:50;;;;;;;3.70;0.50;;;6.40;99.90;;;;;;4178412;28;20671;-76
2024/02/23 07:03:53;;;;;;;2.03;1.00;;;6.40;99.90;;;;;;4186920;28;20530;-76
2024/02/23 07:05:55;;;;;;;3.47;0.70;;;6.40;99.90;;;;;;4190036;28;20443;-77
2024/02/23 07:07:57;;;;;;;1.10;0.50;;;6.40;99.90;;;;;;4181806;28;20475;-75
2024/02/23 07:09:58;;;;;;;1.70;0.53;;;6.40;99.90;;;;;;4181413;28;20484;-76
2024/02/23 07:12:00;;;;;;;1.87;0.50;;;6.40;99.90;;;;;;4182981;28;20544;-78
2024/02/23 07:14:02;;;;;;;1.13;0.30;;;6.40;99.90;;;;;;4184441;28;20502;-78
2024/02/23 07:16:05;;;;;;;0.73;0.40;;;6.40;99.90;;;;;;4186933;28;20443;-78
2024/02/23 07:18:08;;;;;;;2.90;0.50;;;6.50;99.90;;;;;;4183006;28;20474;-77
2024/02/23 07:20:12;;;;;;;0.50;0.30;;;6.40;99.90;;;;;;4187992;28;20507;-77
2024/02/23 07:22:15;;;;;;;0.43;0.33;;;6.50;99.90;;;;;;4182005;28;20448;-77
2024/02/23 07:24:20;;;;;;;0.90;0.30;;;6.50;99.90;;;;;;4186677;28;20972;-77
2024/02/23 07:26:22;;;;;;;0.90;0.47;;;6.50;99.90;;;;;;4187316;28;21012;-76
2024/02/23 07:28:24;;;;;;;3.50;0.40;;;6.50;99.90;;;;;;4189034;28;20448;-77
2024/02/23 07:30:26;;;;;;;1.77;0.47;;;6.50;99.90;;;;;;4192322;28;20545;-77
2024/02/23 07:32:29;;;;;;;1.27;0.40;;;6.50;99.90;;;;;;4182540;28;20492;-77
2024/02/23 07:34:32;;;;;;;1.00;0.40;;;6.50;99.90;;;;;;4184129;28;20976;-77
2024/02/23 07:36:35;;;;;;;3.00;0.50;;;6.60;99.90;;;;;;4185613;28;20292;-77
2024/02/23 07:38:37;;;;;;;1.27;0.50;;;6.70;99.90;;;;;;4186401;28;20215;-78
2024/02/23 07:40:39;;;;;;;0.30;0.30;;;6.60;99.90;;;;;;4182523;28;20484;-77
2024/02/23 07:42:41;;;;;;;1.07;0.50;;;6.60;99.90;;;;;;4186017;28;20213;-77
2024/02/23 07:44:42;;;;;;;3.50;1.17;;;6.60;99.90;;;;;;4181335;28;20638;-77
2024/02/23 07:46:44;;;;;;;1.67;0.50;;;6.60;99.90;;;;;;4187819;28;20260;-77
2024/02/23 07:48:48;;;;;;;0.50;0.23;;;6.60;99.90;;;;;;4180675;28;20229;-77
2024/02/23 07:50:49;;;;;;;1.20;0.30;;;6.60;99.90;;;;;;4186439;28;20480;-77
2024/02/23 07:52:52;;;;;;;1.03;0.30;;;6.60;99.90;;;;;;4188599;28;20454;-77
2024/02/23 07:54:57;;;;;;;0.97;0.50;;;6.70;99.90;;;;;;4184374;28;20203;-77
2024/02/23 07:56:59;;;;;;;2.07;0.30;;;6.70;99.90;;;;;;4185914;28;20457;-77
2024/02/23 07:59:03;;;;;;;0.70;0.30;;;6.70;99.90;;;;;;4191306;28;20224;-77
2024/02/23 08:01:05;;;;;;;3.67;0.50;;;6.70;99.90;;;;;;4193041;28;20464;-77
2024/02/23 08:03:08;;;;;;;1.60;0.47;;;6.70;99.90;;;;;;4193185;28;20256;-76
2024/02/23 08:05:10;;;;;;;0.57;0.47;;;6.70;99.90;;;;;;4187753;28;20284;-77
2024/02/23 08:07:12;;;;;;;3.50;0.50;;;6.70;99.90;;;;;;4182996;28;20622;-77
2024/02/23 08:09:16;;;;;;;2.00;0.60;;;6.70;99.90;;;;;;4183082;28;20247;-77
2024/02/23 08:11:20;;;;;;;1.10;0.40;;;6.70;99.90;;;;;;4186278;28;20205;-78
2024/02/23 08:13:22;;;;;;;1.43;0.40;;;6.80;99.90;;;;;;4184317;28;20226;-78
2024/02/23 08:15:24;;;;;;;1.87;0.60;;;6.80;99.90;;;;;;4183397;28;20198;-78
2024/02/23 08:17:26;;;;;;;1.30;0.50;;;6.80;99.90;;;;;;4184973;28;20984;-77
2024/02/23 08:19:27;;;;;;;1.30;0.57;;;6.90;99.90;;;;;;4184626;28;20286;-78
2024/02/23 08:21:29;;;;;;;3.37;0.43;;;6.90;99.90;;;;;;4190232;28;20206;-77
2024/02/23 08:23:31;;;;;;;2.53;0.50;;;6.90;99.90;;;;;;4186738;28;20227;-77
2024/02/23 08:25:34;;;;;;;1.07;0.40;;;6.90;99.90;;;;;;4182164;28;20207;-76
2024/02/23 08:27:36;;;;;;;1.53;0.40;;;6.90;99.90;;;;;;4190139;28;20205;-75
2024/02/23 08:29:38;;;;;;;2.33;0.40;;;6.90;99.90;;;;;;4189122;28;20253;-74
2024/02/23 08:31:40;;;;;;;1.73;0.50;;;7.00;99.90;;;;;;4185321;28;20260;-75
2024/02/23 08:33:42;;;;;;;0.30;0.30;;;7.00;99.90;;;;;;4188208;28;20218;-75
2024/02/23 08:35:44;;;;;;;1.47;0.47;;;7.00;99.90;;;;;;4185770;28;20207;-75
2024/02/23 08:37:46;;;;;;;1.00;0.63;;;7.10;99.90;;;;;;4183827;28;20199;-75
2024/02/23 08:39:48;;;;;;;1.57;0.40;;;7.10;99.90;;;;;;4185146;28;20294;-76
2024/02/23 08:41:51;;;;;;;0.97;0.40;;;7.10;99.90;;;;;;4188008;28;20227;-75
2024/02/23 08:43:54;;;;;;;0.97;0.60;;;7.20;99.90;;;;;;4185301;28;20472;-75
2024/02/23 08:45:56;;;;;;;1.93;0.40;;;7.20;99.90;;;;;;4184835;28;20203;-75
2024/02/23 08:48:00;;;;;;;1.90;0.70;;;7.20;99.90;;;;;;4184222;28;20207;-76
2024/02/23 08:50:01;;;;;;;1.30;0.40;;;7.20;99.90;;;;;;4187485;28;20214;-75
2024/02/23 08:52:03;;;;;;;1.80;0.50;;;7.30;99.90;;;;;;4190336;28;20233;-75
2024/02/23 08:54:07;;;;;;;1.80;0.33;;;7.30;99.90;;;;;;4184276;28;20241;-75
2024/02/23 08:56:09;;;;;;;2.20;0.60;;;7.40;99.90;;;;;;4184036;28;20226;-75
2024/02/23 08:58:13;;;;;;;1.23;0.37;;;7.40;99.90;;;;;;4191823;28;20214;-74
2024/02/23 09:00:15;;;;;;;6.97;0.50;;;7.40;99.90;;;;;;4185406;28;20669;-76
2024/02/23 09:02:18;;;;;;;0.93;0.40;;;7.40;99.90;;;;;;4187703;28;20210;-78
2024/02/23 09:04:20;;;;;;;0.60;0.30;;;7.50;99.90;;;;;;4188269;28;20247;-77
2024/02/23 09:06:22;;;;;;;4.47;0.40;;;7.60;99.90;;;;;;4183677;28;20269;-77
2024/02/23 09:08:24;;;;;;;1.10;0.47;;;7.60;99.90;;;;;;4188941;28;20550;-78
2024/02/23 09:10:26;;;;;;;1.50;0.30;;;7.50;99.90;;;;;;4185284;28;20219;-77
2024/02/23 09:12:28;;;;;;;1.43;0.30;;;7.70;99.90;;;;;;4185067;28;20744;-78
2024/02/23 09:14:31;;;;;;;0.83;0.30;;;7.60;99.90;;;;;;4189832;28;20598;-78
2024/02/23 09:16:33;;;;;;;1.67;0.43;;;7.70;99.90;;;;;;4192153;28;20694;-78
2024/02/23 09:18:35;;;;;;;1.07;0.43;;;7.70;99.90;;;;;;4199250;28;20205;-78
2024/02/23 09:20:37;;;;;;;0.93;0.33;;;7.70;99.90;;;;;;4193621;28;20651;-77
2024/02/23 09:22:39;;;;;;;2.10;0.30;;;7.80;99.90;;;;;;4191679;28;20215;-77
2024/02/23 09:24:41;;;;;;;3.27;0.40;;;7.80;99.90;;;;;;4187877;28;20679;-78
2024/02/23 09:26:47;;;;;;;1.17;0.53;;;7.80;99.90;;;;;;4190277;28;20221;-77
2024/02/23 09:28:49;;;;;;;1.53;0.40;;;7.80;99.90;;;;;;4190504;28;20256;-78
2024/02/23 09:30:52;;;;;;;2.23;0.50;;;7.80;99.90;;;;;;4186406;28;20234;-77
2024/02/23 09:32:56;;;;;;;3.60;0.40;;;7.90;99.90;;;;;;4182061;28;20599;-77
2024/02/23 09:35:01;;;;;;;3.70;0.40;;;7.90;99.90;;;;;;4185666;28;20206;-77
2024/02/23 09:37:03;;;;;;;1.17;0.50;;;8.00;99.90;;;;;;4188664;28;20208;-77
2024/02/23 09:39:05;;;;;;;1.70;0.50;;;7.90;99.90;;;;;;4185369;28;20261;-78
2024/02/23 09:41:18;;;;;;;5.93;0.40;;;8.00;99.90;;;;;;4186338;28;20212;-79
2024/02/23 09:43:23;;;;;;;1.67;0.40;;;8.10;99.90;;;;;;4188174;28;20230;-79
2024/02/23 09:45:26;;;;;;;1.20;0.60;;;8.10;99.90;;;;;;4189365;28;20224;-78
2024/02/23 09:47:30;;;;;;;1.60;0.53;;;8.20;99.90;;;;;;4186043;28;21544;-78
2024/02/23 09:49:31;;;;;;;3.63;0.77;;;8.20;99.90;;;;;;4186575;28;20215;-79
2024/02/23 09:51:34;;;;;;;3.10;0.80;;;8.30;99.90;;;;;;4188203;28;20225;-79
2024/02/23 09:53:38;;;;;;;3.67;1.20;;;8.20;99.90;;;;;;4186768;28;20225;-78
2024/02/23 09:55:41;;;;;;;0.77;0.40;;;8.20;99.90;;;;;;4185398;28;20267;-78
2024/02/23 09:57:44;;;;;;;6.73;0.60;;;8.30;99.90;;;;;;4186340;28;20228;-78
2024/02/23 09:59:49;;;;;;;0.83;0.50;;;8.30;99.90;;;;;;4188603;28;20690;-78
2024/02/23 10:01:52;;;;;;;2.10;0.47;;;8.30;99.90;;;;;;4185120;28;20665;-78
2024/02/23 10:03:58;;;;;;;1.90;0.50;;;8.40;99.90;;;;;;4188126;28;20528;-77
2024/02/23 10:06:01;;;;;;;2.77;1.20;;;8.40;99.90;;;;;;4184185;28;20207;-78
2024/02/23 10:08:03;;;;;;;4.83;0.70;;;8.40;99.90;;;;;;4188708;28;20584;-78
2024/02/23 10:10:08;;;;;;;1.80;0.70;;;8.40;99.90;;;;;;4184860;28;20236;-78
2024/02/23 10:12:09;;;;;;;1.77;0.60;;;8.50;99.90;;;;;;4189655;28;20206;-77
2024/02/23 10:14:12;;;;;;;0.90;0.50;;;8.50;99.90;;;;;;4188966;28;20242;-77
2024/02/23 10:16:14;;;;;;;0.83;0.40;;;8.60;99.90;;;;;;4194515;28;20208;-78
2024/02/23 10:18:16;;;;;;;1.17;0.30;;;8.60;99.90;;;;;;4191143;28;20216;-78
2024/02/23 10:20:18;;;;;;;0.93;0.47;;;8.60;99.90;;;;;;4189142;28;20213;-78
2024/02/23 10:22:21;;;;;;;2.23;1.03;;;8.70;99.90;;;;;;4186448;28;20255;-77
2024/02/23 10:24:24;;;;;;;1.53;0.57;;;8.70;99.90;;;;;;4191757;28;20218;-77
2024/02/23 10:26:29;;;;;;;2.10;0.80;;;8.60;99.90;;;;;;4186268;28;20657;-77
2024/02/23 10:28:31;;;;;;;6.23;0.60;;;8.60;99.90;;;;;;4184110;28;21135;-79
2024/02/23 10:30:33;;;;;;;1.53;0.60;;;8.70;99.90;;;;;;4186044;28;20571;-78
2024/02/23 10:32:36;;;;;;;0.83;0.43;;;8.70;99.90;;;;;;4186663;28;20721;-78
2024/02/23 10:34:39;;;;;;;1.80;0.50;;;8.80;99.90;;;;;;4184582;28;20228;-78
2024/02/23 10:36:42;;;;;;;3.47;0.90;;;8.80;99.90;;;;;;4186817;28;20218;-79
2024/02/23 10:38:46;;;;;;;1.87;0.93;;;8.90;99.90;;;;;;4184890;28;20206;-78
2024/02/23 10:40:50;;;;;;;1.50;0.50;;;8.90;99.90;;;;;;4185065;28;20197;-78
2024/02/23 10:42:55;;;;;;;2.10;0.60;;;8.90;99.90;;;;;;4185060;28;20213;-78
2024/02/23 10:45:01;;;;;;;0.73;0.30;;;8.90;99.90;;;;;;4184439;28;20240;-85